KDGW/DGW METAR and TAF weather

Enter ICAO airport designator
Station Type Date Time Source
KDGW METAR 2019/04/21 22:50 UTC NOAA

KDGW 212250Z AUTO 33012G20KT 10SM OVC012 07/06 A3003 RMK AO2 RAB11E20 P0000


Station Type Date Time Source
KDGW Decoded METAR 2019/04/21 22:50 UTC NOAA

DOUGLAS CONVERSE COUNTY, WY, United States (KDGW) 42-48N 105-23W 1499M
Apr 21, 2019 - 06:50 PM EDT / 2019.04.21 2250 UTC
Wind: from the NNW (330 degrees) at 14 MPH (12 KT) gusting to 23 MPH (20 KT):0
Visibility: 10 mile(s):0
Sky conditions: overcast
Precipitation last hour: A trace
Temperature: 44 F (7 C)
Dew Point: 42 F (6 C)
Relative Humidity: 93%
Pressure (altimeter): 30.03 in. Hg (1016 hPa)
ob: KDGW 212250Z AUTO 33012G20KT 10SM OVC012 07/06 A3003 RMK AO2 RAB11E20 P0000
cycle: 23

Station Type Date Time Source
KDGW TAF UTC NOAA

Error!

Example: see airport list